sensor_id;sensor_type;location;lat;lon;timestamp;pressure;altitude;pressure_sealevel;temperature;humidity
60371;BME280;48550;40.588;49.684;2022-12-24T00:02:13;102080.53;;;8.33;100.00
60371;BME280;48550;40.588;49.684;2022-12-24T00:04:39;102083.28;;;8.25;100.00
60371;BME280;48550;40.588;49.684;2022-12-24T00:07:05;102079.03;;;8.31;100.00
60371;BME280;48550;40.588;49.684;2022-12-24T00:09:31;102070.66;;;8.48;100.00
60371;BME280;48550;40.588;49.684;2022-12-24T00:11:57;102067.91;;;8.42;100.00
60371;BME280;48550;40.588;49.684;2022-12-24T00:14:25;102062.00;;;8.46;100.00
60371;BME280;48550;40.588;49.684;2022-12-24T00:16:51;102053.69;;;8.41;100.00
60371;BME280;48550;40.588;49.684;2022-12-24T00:19:16;102059.31;;;8.46;100.00
60371;BME280;48550;40.588;49.684;2022-12-24T00:21:42;102042.63;;;8.44;100.00
60371;BME280;48550;40.588;49.684;2022-12-24T00:24:08;102043.09;;;8.48;100.00
60371;BME280;48550;40.588;49.684;2022-12-24T00:26:34;102043.25;;;8.46;100.00
60371;BME280;48550;40.588;49.684;2022-12-24T00:29:00;102047.03;;;8.52;100.00
60371;BME280;48550;40.588;49.684;2022-12-24T00:31:26;102043.09;;;8.48;100.00
60371;BME280;48550;40.588;49.684;2022-12-24T00:33:52;102038.19;;;8.51;100.00
60371;BME280;48550;40.588;49.684;2022-12-24T00:36:19;102034.94;;;8.56;100.00
60371;BME280;48550;40.588;49.684;2022-12-24T00:38:45;102034.75;;;8.57;100.00
60371;BME280;48550;40.588;49.684;2022-12-24T00:41:13;102029.41;;;8.57;100.00
60371;BME280;48550;40.588;49.684;2022-12-24T00:44:01;102031.72;;;8.60;100.00
60371;BME280;48550;40.588;49.684;2022-12-24T00:46:29;102019.81;;;8.63;100.00
60371;BME280;48550;40.588;49.684;2022-12-24T00:48:55;102020.56;;;8.57;100.00
60371;BME280;48550;40.588;49.684;2022-12-24T00:51:21;102024.44;;;8.54;100.00
60371;BME280;48550;40.588;49.684;2022-12-24T00:53:48;102022.13;;;8.51;100.00
60371;BME280;48550;40.588;49.684;2022-12-24T00:56:14;102020.84;;;8.47;100.00
60371;BME280;48550;40.588;49.684;2022-12-24T00:58:40;102017.34;;;8.47;100.00
60371;BME280;48550;40.588;49.684;2022-12-24T01:01:06;102014.66;;;8.47;100.00
60371;BME280;48550;40.588;49.684;2022-12-24T01:03:32;102006.00;;;8.45;100.00
60371;BME280;48550;40.588;49.684;2022-12-24T01:06:12;101995.84;;;8.40;100.00
60371;BME280;48550;40.588;49.684;2022-12-24T01:08:38;101999.81;;;8.44;100.00
60371;BME280;48550;40.588;49.684;2022-12-24T01:11:05;101993.81;;;8.42;100.00
60371;BME280;48550;40.588;49.684;2022-12-24T01:13:32;102004.72;;;8.41;100.00
60371;BME280;48550;40.588;49.684;2022-12-24T01:15:58;101999.09;;;8.36;100.00
60371;BME280;48550;40.588;49.684;2022-12-24T01:18:24;101997.25;;;8.36;100.00
60371;BME280;48550;40.588;49.684;2022-12-24T01:20:58;102004.72;;;8.41;100.00
60371;BME280;48550;40.588;49.684;2022-12-24T01:23:24;101998.63;;;8.47;100.00
60371;BME280;48550;40.588;49.684;2022-12-24T01:25:50;102002.94;;;8.48;100.00
60371;BME280;48550;40.588;49.684;2022-12-24T01:28:16;102005.63;;;8.48;100.00
60371;BME280;48550;40.588;49.684;2022-12-24T01:30:42;102005.25;;;8.51;100.00
60371;BME280;48550;40.588;49.684;2022-12-24T01:33:08;102009.78;;;8.50;100.00
60371;BME280;48550;40.588;49.684;2022-12-24T01:35:33;102011.06;;;8.54;100.00
60371;BME280;48550;40.588;49.684;2022-12-24T01:37:59;102004.13;;;8.60;100.00
60371;BME280;48550;40.588;49.684;2022-12-24T01:40:25;102010.19;;;8.69;100.00
60371;BME280;48550;40.588;49.684;2022-12-24T01:43:18;102003.63;;;8.71;100.00
60371;BME280;48550;40.588;49.684;2022-12-24T01:51:03;101992.63;;;8.81;100.00
60371;BME280;48550;40.588;49.684;2022-12-24T01:53:31;101996.75;;;8.83;100.00
60371;BME280;48550;40.588;49.684;2022-12-24T01:55:59;102003.97;;;8.83;100.00
60371;BME280;48550;40.588;49.684;2022-12-24T01:58:26;101992.88;;;8.86;100.00
60371;BME280;48550;40.588;49.684;2022-12-24T02:00:52;101989.47;;;8.92;100.00
60371;BME280;48550;40.588;49.684;2022-12-24T02:03:18;101991.66;;;8.88;100.00
60371;BME280;48550;40.588;49.684;2022-12-24T02:05:50;101993.81;;;8.93;100.00
60371;BME280;48550;40.588;49.684;2022-12-24T02:08:17;101996.56;;;8.85;100.00
60371;BME280;48550;40.588;49.684;2022-12-24T02:10:44;101998.22;;;8.86;100.00
60371;BME280;48550;40.588;49.684;2022-12-24T02:13:10;101992.88;;;8.86;100.00
60371;BME280;48550;40.588;49.684;2022-12-24T02:15:50;101989.69;;;8.76;100.00
60371;BME280;48550;40.588;49.684;2022-12-24T02:25:01;101992.44;;;8.46;100.00
60371;BME280;48550;40.588;49.684;2022-12-24T02:30:10;101993.44;;;8.45;100.00
60371;BME280;48550;40.588;49.684;2022-12-24T02:38:24;101999.72;;;8.52;100.00
60371;BME280;48550;40.588;49.684;2022-12-24T02:40:59;101992.06;;;8.49;100.00
60371;BME280;48550;40.588;49.684;2022-12-24T02:43:33;101980.44;;;8.42;100.00
60371;BME280;48550;40.588;49.684;2022-12-24T02:46:04;101976.75;;;8.28;100.00
60371;BME280;48550;40.588;49.684;2022-12-24T02:48:32;101979.53;;;8.20;100.00
60371;BME280;48550;40.588;49.684;2022-12-24T02:51:03;101994.25;;;8.16;100.00
60371;BME280;48550;40.588;49.684;2022-12-24T02:53:30;101990.22;;;8.06;100.00
60371;BME280;48550;40.588;49.684;2022-12-24T03:04:27;101991.88;;;8.07;100.00
60371;BME280;48550;40.588;49.684;2022-12-24T03:07:14;101989.75;;;8.02;100.00
60371;BME280;48550;40.588;49.684;2022-12-24T03:09:55;101995.94;;;8.03;100.00
60371;BME280;48550;40.588;49.684;2022-12-24T03:12:39;101993.53;;;8.08;100.00
60371;BME280;48550;40.588;49.684;2022-12-24T03:15:08;101992.88;;;8.06;100.00
60371;BME280;48550;40.588;49.684;2022-12-24T03:17:37;101991.69;;;8.08;100.00
60371;BME280;48550;40.588;49.684;2022-12-24T03:20:05;101991.03;;;8.06;100.00
60371;BME280;48550;40.588;49.684;2022-12-24T03:22:34;101986.06;;;8.03;100.00
60371;BME280;48550;40.588;49.684;2022-12-24T03:25:00;101992.22;;;8.04;100.00
60371;BME280;48550;40.588;49.684;2022-12-24T03:27:30;102003.38;;;8.07;100.00
60371;BME280;48550;40.588;49.684;2022-12-24T03:29:57;102004.88;;;8.10;100.00
60371;BME280;48550;40.588;49.684;2022-12-24T03:32:27;102007.63;;;8.16;100.00
60371;BME280;48550;40.588;49.684;2022-12-24T03:34:54;102005.50;;;8.12;100.00
60371;BME280;48550;40.588;49.684;2022-12-24T03:37:21;102010.84;;;8.12;100.00
60371;BME280;48550;40.588;49.684;2022-12-24T03:39:46;102010.03;;;8.11;100.00
60371;BME280;48550;40.588;49.684;2022-12-24T03:42:12;102006.97;;;8.14;100.00
60371;BME280;48550;40.588;49.684;2022-12-24T03:44:38;102010.03;;;8.11;100.00
60371;BME280;48550;40.588;49.684;2022-12-24T03:47:03;102007.72;;;8.08;100.00
60371;BME280;48550;40.588;49.684;2022-12-24T03:49:29;101995.66;;;8.12;100.00
60371;BME280;48550;40.588;49.684;2022-12-24T03:51:55;102004.88;;;8.10;100.00
60371;BME280;48550;40.588;49.684;2022-12-24T03:54:20;102006.78;;;8.16;100.00
60371;BME280;48550;40.588;49.684;2022-12-24T03:56:46;102008.19;;;8.12;100.00
60371;BME280;48550;40.588;49.684;2022-12-24T03:59:12;101998.50;;;8.11;100.00
60371;BME280;48550;40.588;49.684;2022-12-24T04:01:38;101996.84;;;8.10;100.00
60371;BME280;48550;40.588;49.684;2022-12-24T04:04:03;101994.34;;;8.08;100.00
60371;BME280;48550;40.588;49.684;2022-12-24T04:06:29;101995.19;;;8.09;100.00
60371;BME280;48550;40.588;49.684;2022-12-24T04:08:55;102001.38;;;8.09;100.00
60371;BME280;48550;40.588;49.684;2022-12-24T04:11:21;101999.16;;;8.13;100.00
60371;BME280;48550;40.588;49.684;2022-12-24T04:13:47;102005.13;;;8.15;100.00
60371;BME280;48550;40.588;49.684;2022-12-24T04:16:14;101996.59;;;8.19;100.00
60371;BME280;48550;40.588;49.684;2022-12-24T04:18:40;102001.66;;;8.29;100.00
60371;BME280;48550;40.588;49.684;2022-12-24T04:21:07;101997.44;;;8.35;100.00
60371;BME280;48550;40.588;49.684;2022-12-24T04:23:34;102003.50;;;8.43;100.00
60371;BME280;48550;40.588;49.684;2022-12-24T04:26:02;101995.38;;;8.51;100.00
60371;BME280;48550;40.588;49.684;2022-12-24T04:28:29;101990.28;;;8.56;100.00
60371;BME280;48550;40.588;49.684;2022-12-24T04:30:59;101992.47;;;8.68;100.00
60371;BME280;48550;40.588;49.684;2022-12-24T04:33:25;101997.63;;;8.69;100.00
60371;BME280;48550;40.588;49.684;2022-12-24T04:35:51;102000.50;;;8.68;100.00
60371;BME280;48550;40.588;49.684;2022-12-24T04:38:17;101998.72;;;8.75;100.00
60371;BME280;48550;40.588;49.684;2022-12-24T04:40:43;102000.44;;;9.18;100.00
60371;BME280;48550;40.588;49.684;2022-12-24T04:43:09;101998.97;;;9.16;100.00
60371;BME280;48550;40.588;49.684;2022-12-24T04:45:34;101998.69;;;9.32;100.00
60371;BME280;48550;40.588;49.684;2022-12-24T04:48:00;102000.47;;;9.46;100.00
60371;BME280;48550;40.588;49.684;2022-12-24T04:50:26;102002.41;;;9.31;100.00
60371;BME280;48550;40.588;49.684;2022-12-24T04:52:51;101994.03;;;9.41;100.00
60371;BME280;48550;40.588;49.684;2022-12-24T04:55:17;101992.06;;;9.28;100.00
60371;BME280;48550;40.588;49.684;2022-12-24T04:57:43;101995.63;;;9.35;100.00
60371;BME280;48550;40.588;49.684;2022-12-24T05:00:09;101998.16;;;9.43;100.00
60371;BME280;48550;40.588;49.684;2022-12-24T05:02:35;101993.16;;;9.62;100.00
60371;BME280;48550;40.588;49.684;2022-12-24T05:05:01;102002.22;;;9.61;100.00
60371;BME280;48550;40.588;49.684;2022-12-24T05:07:27;101999.06;;;9.50;100.00
60371;BME280;48550;40.588;49.684;2022-12-24T05:09:53;101996.97;;;9.74;100.00
60371;BME280;48550;40.588;49.684;2022-12-24T05:12:18;102004.00;;;10.09;100.00
60371;BME280;48550;40.588;49.684;2022-12-24T05:14:44;102005.69;;;11.19;100.00
60371;BME280;48550;40.588;49.684;2022-12-24T05:17:10;102001.53;;;12.02;100.00
60371;BME280;48550;40.588;49.684;2022-12-24T05:19:36;101996.97;;;12.67;100.00
60371;BME280;48550;40.588;49.684;2022-12-24T05:22:02;102001.31;;;12.62;100.00
60371;BME280;48550;40.588;49.684;2022-12-24T05:24:45;102000.31;;;11.65;100.00
60371;BME280;48550;40.588;49.684;2022-12-24T05:27:30;101990.84;;;12.40;100.00
60371;BME280;48550;40.588;49.684;2022-12-24T05:29:56;101999.63;;;13.05;100.00
60371;BME280;48550;40.588;49.684;2022-12-24T05:32:21;102004.22;;;13.61;100.00
60371;BME280;48550;40.588;49.684;2022-12-24T05:34:47;102002.97;;;13.39;100.00
60371;BME280;48550;40.588;49.684;2022-12-24T05:37:13;102000.78;;;14.34;100.00
60371;BME280;48550;40.588;49.684;2022-12-24T05:39:38;101995.28;;;14.59;100.00
60371;BME280;48550;40.588;49.684;2022-12-24T05:42:04;101991.16;;;14.38;100.00
60371;BME280;48550;40.588;49.684;2022-12-24T05:44:30;101987.63;;;14.38;100.00
60371;BME280;48550;40.588;49.684;2022-12-24T05:46:55;101984.81;;;15.22;100.00
60371;BME280;48550;40.588;49.684;2022-12-24T05:49:21;101982.25;;;15.39;100.00
60371;BME280;48550;40.588;49.684;2022-12-24T05:51:47;101984.78;;;15.11;100.00
60371;BME280;48550;40.588;49.684;2022-12-24T05:54:13;101984.09;;;15.69;100.00
60371;BME280;48550;40.588;49.684;2022-12-24T05:56:38;101995.25;;;15.72;100.00
60371;BME280;48550;40.588;49.684;2022-12-24T05:59:04;101990.78;;;14.53;100.00
60371;BME280;48550;40.588;49.684;2022-12-24T06:01:30;101983.69;;;13.60;100.00
60371;BME280;48550;40.588;49.684;2022-12-24T06:03:56;101972.34;;;12.51;100.00
60371;BME280;48550;40.588;49.684;2022-12-24T06:06:24;101968.03;;;11.85;100.00
60371;BME280;48550;40.588;49.684;2022-12-24T06:08:51;101970.75;;;11.39;100.00
60371;BME280;48550;40.588;49.684;2022-12-24T06:11:23;101959.94;;;10.93;100.00
60371;BME280;48550;40.588;49.684;2022-12-24T06:13:49;101963.41;;;10.60;100.00
60371;BME280;48550;40.588;49.684;2022-12-24T06:16:17;101957.81;;;10.62;100.00
60371;BME280;48550;40.588;49.684;2022-12-24T06:18:43;101957.41;;;10.65;100.00
60371;BME280;48550;40.588;49.684;2022-12-24T06:21:10;101954.25;;;10.41;100.00
60371;BME280;48550;40.588;49.684;2022-12-24T06:23:37;101958.13;;;10.32;100.00
60371;BME280;48550;40.588;49.684;2022-12-24T06:26:05;101963.66;;;10.24;100.00
60371;BME280;48550;40.588;49.684;2022-12-24T06:28:33;101950.16;;;10.11;100.00
60371;BME280;48550;40.588;49.684;2022-12-24T06:31:00;101951.38;;;10.08;100.00
60371;BME280;48550;40.588;49.684;2022-12-24T06:33:27;101936.56;;;10.19;100.00
60371;BME280;48550;40.588;49.684;2022-12-24T06:35:52;101930.75;;;10.09;100.00
60371;BME280;48550;40.588;49.684;2022-12-24T06:38:18;101945.22;;;10.14;100.00
60371;BME280;48550;40.588;49.684;2022-12-24T06:40:45;101940.06;;;10.13;100.00
60371;BME280;48550;40.588;49.684;2022-12-24T06:43:12;101936.91;;;10.03;100.00
60371;BME280;48550;40.588;49.684;2022-12-24T06:45:38;101937.78;;;10.10;100.00
60371;BME280;48550;40.588;49.684;2022-12-24T06:48:04;101937.56;;;10.11;100.00
60371;BME280;48550;40.588;49.684;2022-12-24T06:50:32;101933.84;;;10.12;100.00
60371;BME280;48550;40.588;49.684;2022-12-24T06:52:58;101928.34;;;10.21;100.00
60371;BME280;48550;40.588;49.684;2022-12-24T06:55:24;101923.41;;;10.24;100.00
60371;BME280;48550;40.588;49.684;2022-12-24T06:57:49;101926.09;;;10.24;100.00
60371;BME280;48550;40.588;49.684;2022-12-24T07:00:15;101931.28;;;10.32;100.00
60371;BME280;48550;40.588;49.684;2022-12-24T07:02:42;101923.41;;;10.24;100.00
60371;BME280;48550;40.588;49.684;2022-12-24T07:05:12;101924.28;;;10.38;100.00
60371;BME280;48550;40.588;49.684;2022-12-24T07:07:39;101923.06;;;10.40;100.00
60371;BME280;48550;40.588;49.684;2022-12-24T07:10:06;101915.69;;;10.56;100.00
60371;BME280;48550;40.588;49.684;2022-12-24T07:12:32;101906.19;;;10.60;100.00
60371;BME280;48550;40.588;49.684;2022-12-24T07:14:58;101904.34;;;10.73;100.00
60371;BME280;48550;40.588;49.684;2022-12-24T07:17:24;101906.22;;;10.86;100.00
60371;BME280;48550;40.588;49.684;2022-12-24T07:19:50;101904.16;;;10.88;100.00
60371;BME280;48550;40.588;49.684;2022-12-24T07:22:15;101901.06;;;10.78;100.00
60371;BME280;48550;40.588;49.684;2022-12-24T07:24:41;101900.25;;;10.91;100.00
60371;BME280;48550;40.588;49.684;2022-12-24T07:27:07;101894.22;;;10.75;100.00
60371;BME280;48550;40.588;49.684;2022-12-24T07:29:33;101900.44;;;11.49;100.00
60371;BME280;48550;40.588;49.684;2022-12-24T07:31:59;101887.84;;;11.16;100.00
60371;BME280;48550;40.588;49.684;2022-12-24T07:34:24;101893.44;;;11.21;100.00
60371;BME280;48550;40.588;49.684;2022-12-24T07:36:50;101881.22;;;11.12;100.00
60371;BME280;48550;40.588;49.684;2022-12-24T07:39:16;101883.09;;;11.05;100.00
60371;BME280;48550;40.588;49.684;2022-12-24T07:41:41;101880.22;;;11.20;100.00
60371;BME280;48550;40.588;49.684;2022-12-24T07:44:11;101874.00;;;11.19;100.00
60371;BME280;48550;40.588;49.684;2022-12-24T07:46:38;101871.50;;;11.11;100.00
60371;BME280;48550;40.588;49.684;2022-12-24T07:49:04;101863.25;;;11.06;100.00
60371;BME280;48550;40.588;49.684;2022-12-24T07:51:29;101860.75;;;11.04;100.00
60371;BME280;48550;40.588;49.684;2022-12-24T07:53:55;101868.00;;;11.10;100.00
60371;BME280;48550;40.588;49.684;2022-12-24T07:56:21;101866.13;;;11.31;100.00
60371;BME280;48550;40.588;49.684;2022-12-24T07:58:49;101867.38;;;11.35;100.00
60371;BME280;48550;40.588;49.684;2022-12-24T08:01:15;101856.84;;;11.07;100.00
60371;BME280;48550;40.588;49.684;2022-12-24T08:03:41;101862.84;;;11.16;100.00
60371;BME280;48550;40.588;49.684;2022-12-24T08:06:07;101860.97;;;11.09;100.00
60371;BME280;48550;40.588;49.684;2022-12-24T08:08:32;101864.28;;;10.98;100.00
60371;BME280;48550;40.588;49.684;2022-12-24T08:11:03;101852.50;;;10.93;100.00
60371;BME280;48550;40.588;49.684;2022-12-24T08:13:29;101851.25;;;11.08;100.00
60371;BME280;48550;40.588;49.684;2022-12-24T08:15:55;101848.78;;;11.00;100.00
60371;BME280;48550;40.588;49.684;2022-12-24T08:18:22;101846.72;;;11.02;100.00
60371;BME280;48550;40.588;49.684;2022-12-24T08:20:48;101836.41;;;10.86;100.00
60371;BME280;48550;40.588;49.684;2022-12-24T08:23:13;101840.72;;;11.00;100.00
60371;BME280;48550;40.588;49.684;2022-12-24T08:25:44;101832.66;;;11.00;100.00
60371;BME280;48550;40.588;49.684;2022-12-24T08:28:11;101828.94;;;11.01;100.00
60371;BME280;48550;40.588;49.684;2022-12-24T08:30:37;101824.41;;;11.02;100.00
60371;BME280;48550;40.588;49.684;2022-12-24T08:33:03;101825.03;;;10.97;100.00
60371;BME280;48550;40.588;49.684;2022-12-24T08:35:29;101819.44;;;11.05;100.00
60371;BME280;48550;40.588;49.684;2022-12-24T08:37:55;101821.94;;;10.87;100.00
60371;BME280;48550;40.588;49.684;2022-12-24T08:40:20;101812.00;;;10.41;100.00
60371;BME280;48550;40.588;49.684;2022-12-24T08:42:46;101816.56;;;10.61;100.00
60371;BME280;48550;40.588;49.684;2022-12-24T08:45:12;101811.00;;;10.62;100.00
60371;BME280;48550;40.588;49.684;2022-12-24T08:47:38;101805.63;;;10.69;100.00
60371;BME280;48550;40.588;49.684;2022-12-24T08:50:05;101796.53;;;10.70;100.00
60371;BME280;48550;40.588;49.684;2022-12-24T08:52:31;101794.66;;;10.77;100.00
60371;BME280;48550;40.588;49.684;2022-12-24T08:54:57;101796.31;;;10.85;100.00
60371;BME280;48550;40.588;49.684;2022-12-24T08:57:23;101786.00;;;10.81;100.00
60371;BME280;48550;40.588;49.684;2022-12-24T08:59:48;101776.28;;;10.87;100.00
60371;BME280;48550;40.588;49.684;2022-12-24T09:02:14;101776.28;;;10.87;100.00
60371;BME280;48550;40.588;49.684;2022-12-24T09:04:40;101772.13;;;11.04;100.00
60371;BME280;48550;40.588;49.684;2022-12-24T09:07:07;101770.66;;;11.02;100.00
60371;BME280;48550;40.588;49.684;2022-12-24T09:09:32;101767.00;;;10.76;100.00
60371;BME280;48550;40.588;49.684;2022-12-24T09:11:58;101768.25;;;10.74;100.00
60371;BME280;48550;40.588;49.684;2022-12-24T09:14:24;101762.44;;;10.77;100.00
60371;BME280;48550;40.588;49.684;2022-12-24T09:16:49;101761.97;;;11.06;100.00
60371;BME280;48550;40.588;49.684;2022-12-24T09:19:15;101759.06;;;11.14;100.00
60371;BME280;48550;40.588;49.684;2022-12-24T09:21:41;101760.31;;;11.12;100.00
60371;BME280;48550;40.588;49.684;2022-12-24T09:24:07;101757.44;;;11.20;100.00
60371;BME280;48550;40.588;49.684;2022-12-24T09:26:32;101755.56;;;11.21;100.00
60371;BME280;48550;40.588;49.684;2022-12-24T09:29:01;101756.00;;;11.04;100.00
60371;BME280;48550;40.588;49.684;2022-12-24T09:31:27;101752.47;;;11.10;100.00
60371;BME280;48550;40.588;49.684;2022-12-24T09:33:53;101746.50;;;11.15;100.00
60371;BME280;48550;40.588;49.684;2022-12-24T09:36:19;101743.75;;;11.28;100.00
60371;BME280;48550;40.588;49.684;2022-12-24T09:38:46;101738.72;;;11.45;100.00
60371;BME280;48550;40.588;49.684;2022-12-24T09:46:44;101725.97;;;11.34;100.00
60371;BME280;48550;40.588;49.684;2022-12-24T09:49:18;101731.03;;;10.84;100.00
60371;BME280;48550;40.588;49.684;2022-12-24T09:51:53;101725.69;;;10.71;100.00
60371;BME280;48550;40.588;49.684;2022-12-24T09:54:46;101720.53;;;10.69;100.00
60371;BME280;48550;40.588;49.684;2022-12-24T09:57:19;101725.28;;;10.67;100.00
60371;BME280;48550;40.588;49.684;2022-12-24T09:59:48;101719.28;;;10.72;100.00
60371;BME280;48550;40.588;49.684;2022-12-24T10:02:16;101722.19;;;10.70;100.00
60371;BME280;48550;40.588;49.684;2022-12-24T10:04:44;101721.13;;;10.78;100.00
60371;BME280;48550;40.588;49.684;2022-12-24T10:12:54;101713.88;;;10.92;100.00
60371;BME280;48550;40.588;49.684;2022-12-24T10:15:38;101715.31;;;10.88;100.00
60371;BME280;48550;40.588;49.684;2022-12-24T10:20:59;101708.09;;;10.95;100.00
60371;BME280;48550;40.588;49.684;2022-12-24T10:23:48;101700.22;;;11.00;100.00
60371;BME280;48550;40.588;49.684;2022-12-24T10:26:29;101702.06;;;11.06;100.00
60371;BME280;48550;40.588;49.684;2022-12-24T10:29:00;101706.19;;;11.08;100.00
60371;BME280;48550;40.588;49.684;2022-12-24T10:31:32;101702.88;;;11.06;100.00
60371;BME280;48550;40.588;49.684;2022-12-24T10:34:09;101697.31;;;11.01;100.00
60371;BME280;48550;40.588;49.684;2022-12-24T10:36:37;101701.84;;;11.07;100.00
60371;BME280;48550;40.588;49.684;2022-12-24T10:39:03;101702.41;;;11.29;100.00
60371;BME280;48550;40.588;49.684;2022-12-24T10:41:29;101691.41;;;11.37;100.00
60371;BME280;48550;40.588;49.684;2022-12-24T10:43:57;101693.28;;;11.37;100.00
60371;BME280;48550;40.588;49.684;2022-12-24T10:46:35;101696.88;;;11.18;100.00
60371;BME280;48550;40.588;49.684;2022-12-24T10:49:05;101696.19;;;11.35;100.00
60371;BME280;48550;40.588;49.684;2022-12-24T10:51:51;101691.94;;;11.53;100.00
60371;BME280;48550;40.588;49.684;2022-12-24T10:54:28;101690.88;;;11.09;100.00
60371;BME280;48550;40.588;49.684;2022-12-24T10:57:03;101684.34;;;10.92;100.00
60371;BME280;48550;40.588;49.684;2022-12-24T10:59:38;101692.59;;;10.90;100.00
60371;BME280;48550;40.588;49.684;2022-12-24T11:04:54;101691.41;;;10.73;100.00
60371;BME280;48550;40.588;49.684;2022-12-24T11:07:22;101690.97;;;10.76;100.00
60371;BME280;48550;40.588;49.684;2022-12-24T11:09:55;101683.56;;;10.71;100.00
60371;BME280;48550;40.588;49.684;2022-12-24T11:12:22;101686.88;;;10.67;100.00
60371;BME280;48550;40.588;49.684;2022-12-24T11:15:02;101678.00;;;10.53;100.00
60371;BME280;48550;40.588;49.684;2022-12-24T11:17:29;101683.59;;;10.58;100.00
60371;BME280;48550;40.588;49.684;2022-12-24T11:19:54;101687.28;;;10.64;100.00
60371;BME280;48550;40.588;49.684;2022-12-24T11:22:24;101680.91;;;10.52;100.00
60371;BME280;48550;40.588;49.684;2022-12-24T11:25:05;101688.75;;;10.53;100.00
60371;BME280;48550;40.588;49.684;2022-12-24T11:27:41;101695.16;;;10.45;100.00
60371;BME280;48550;40.588;49.684;2022-12-24T11:30:30;101684.41;;;10.32;100.00
60371;BME280;48550;40.588;49.684;2022-12-24T11:35:25;101691.84;;;10.30;100.00
60371;BME280;48550;40.588;49.684;2022-12-24T11:40:28;101688.53;;;10.28;100.00
60371;BME280;48550;40.588;49.684;2022-12-24T11:42:59;101689.56;;;10.21;100.00
60371;BME280;48550;40.588;49.684;2022-12-24T11:45:28;101689.53;;;10.14;100.00
60371;BME280;48550;40.588;49.684;2022-12-24T11:47:55;101688.50;;;10.15;100.00
60371;BME280;48550;40.588;49.684;2022-12-24T11:50:27;101688.91;;;10.12;100.00
60371;BME280;48550;40.588;49.684;2022-12-24T11:55:50;101679.88;;;10.33;100.00
60371;BME280;48550;40.588;49.684;2022-12-24T11:58:43;101676.56;;;10.24;100.00
60371;BME280;48550;40.588;49.684;2022-12-24T12:01:25;101676.53;;;10.11;100.00
60371;BME280;48550;40.588;49.684;2022-12-24T12:03:58;101677.16;;;10.13;100.00
60371;BME280;48550;40.588;49.684;2022-12-24T12:06:31;101674.69;;;10.18;100.00
60371;BME280;48550;40.588;49.684;2022-12-24T12:09:04;101679.63;;;10.08;100.00
60371;BME280;48550;40.588;49.684;2022-12-24T12:11:32;101673.03;;;9.97;100.00
60371;BME280;48550;40.588;49.684;2022-12-24T12:14:02;101669.53;;;9.97;100.00
60371;BME280;48550;40.588;49.684;2022-12-24T12:16:59;101678.81;;;10.01;100.00
60371;BME280;48550;40.588;49.684;2022-12-24T12:19:54;101676.34;;;10.06;100.00
60371;BME280;48550;40.588;49.684;2022-12-24T12:22:44;101669.94;;;10.07;100.00
60371;BME280;48550;40.588;49.684;2022-12-24T12:31:33;101660.84;;;9.95;100.00
60371;BME280;48550;40.588;49.684;2022-12-24T12:34:15;101672.00;;;9.92;100.00
60371;BME280;48550;40.588;49.684;2022-12-24T12:36:49;101671.56;;;9.88;100.00
60371;BME280;48550;40.588;49.684;2022-12-24T12:39:16;101671.16;;;9.84;100.00
60371;BME280;48550;40.588;49.684;2022-12-24T12:41:48;101668.47;;;9.84;100.00
60371;BME280;48550;40.588;49.684;2022-12-24T12:44:38;101662.72;;;9.87;100.00
60371;BME280;48550;40.588;49.684;2022-12-24T12:58:21;101664.34;;;9.75;100.00
60371;BME280;48550;40.588;49.684;2022-12-24T13:00:51;101668.06;;;9.74;100.00
60371;BME280;48550;40.588;49.684;2022-12-24T13:22:25;101660.34;;;9.45;100.00
60371;BME280;48550;40.588;49.684;2022-12-24T13:24:52;101669.41;;;9.44;100.00
60371;BME280;48550;40.588;49.684;2022-12-24T13:27:27;101661.34;;;9.37;100.00
60371;BME280;48550;40.588;49.684;2022-12-24T13:29:56;101664.44;;;9.34;100.00
60371;BME280;48550;40.588;49.684;2022-12-24T13:34:53;101659.66;;;9.23;100.00
60371;BME280;48550;40.588;49.684;2022-12-24T13:50:37;101677.38;;;9.24;100.00
60371;BME280;48550;40.588;49.684;2022-12-24T13:53:04;101677.78;;;9.21;100.00
60371;BME280;48550;40.588;49.684;2022-12-24T13:55:31;101686.63;;;9.21;100.00
60371;BME280;48550;40.588;49.684;2022-12-24T13:58:03;101685.00;;;9.20;100.00
60371;BME280;48550;40.588;49.684;2022-12-24T14:00:39;101688.91;;;9.18;100.00
60371;BME280;48550;40.588;49.684;2022-12-24T14:05:45;101686.41;;;9.16;100.00
60371;BME280;48550;40.588;49.684;2022-12-24T14:08:26;101693.19;;;9.12;100.00
60371;BME280;48550;40.588;49.684;2022-12-24T14:11:04;101697.53;;;9.13;100.00
60371;BME280;48550;40.588;49.684;2022-12-24T14:16:07;101699.78;;;9.10;100.00
60371;BME280;48550;40.588;49.684;2022-12-24T14:18:46;101702.84;;;9.07;100.00
60371;BME280;48550;40.588;49.684;2022-12-24T14:22:16;101703.25;;;9.04;100.00
60371;BME280;48550;40.588;49.684;2022-12-24T14:24:34;101691.91;;;9.02;100.00
60371;BME280;48550;40.588;49.684;2022-12-24T14:27:42;101692.13;;;9.00;100.00
60371;BME280;48550;40.588;49.684;2022-12-24T14:30:15;101688.41;;;9.01;100.00
60371;BME280;48550;40.588;49.684;2022-12-24T14:32:41;101691.47;;;8.98;100.00
60371;BME280;48550;40.588;49.684;2022-12-24T14:35:14;101699.28;;;8.93;100.00
60371;BME280;48550;40.588;49.684;2022-12-24T14:37:44;101696.84;;;8.98;100.00